Time;durP1;ratioP1;P1;durP2;ratioP2;P2;SDS_P1;SDS_P2;PMS_P1;PMS_P2;Temp;Humidity;BMP_temperature;BMP_pressure;BME280_temperature;BME280_humidity;BME280_pressure;Samples;Min_cycle;Max_cycle;Signal;HPM_P1;HPM_P2
2023/10/02 00:01:17;;;;;;;9.63;6.25;;;;;;;17.19;73.36;95459.75;5113074;28;20248;-71
2023/10/02 00:03:44;;;;;;;10.77;7.25;;;;;;;17.21;73.20;95457.66;5111636;28;20551;-71
2023/10/02 00:06:11;;;;;;;10.82;7.10;;;;;;;17.10;73.23;95454.00;5112059;28;20422;-71
2023/10/02 00:08:43;;;;;;;12.63;7.90;;;;;;;17.11;73.15;95455.63;5111704;28;20414;-73
2023/10/02 00:11:35;;;;;;;15.88;7.30;;;;;;;17.25;72.65;95450.81;5112768;28;20451;-72
2023/10/02 00:14:18;;;;;;;13.13;6.43;;;;;;;17.40;72.04;95456.41;5112599;28;20176;-72
2023/10/02 00:16:42;;;;;;;13.60;6.88;;;;;;;17.37;72.01;95446.25;5111513;28;20483;-72
2023/10/02 00:19:18;;;;;;;12.80;6.90;;;;;;;17.48;71.44;95469.34;5115183;27;20409;-72
2023/10/02 00:21:45;;;;;;;12.00;6.80;;;;;;;17.42;70.93;95462.31;5132441;27;20901;-72
2023/10/02 00:24:12;;;;;;;10.80;6.35;;;;;;;17.50;71.12;95461.94;5132866;27;20184;-72
2023/10/02 00:26:38;;;;;;;9.82;5.80;;;;;;;17.53;70.92;95458.78;5120564;27;20653;-72
2023/10/02 00:29:06;;;;;;;9.15;5.82;;;;;;;17.50;70.49;95461.94;5111976;28;20496;-72
2023/10/02 00:31:36;;;;;;;10.80;5.95;;;;;;;17.47;70.19;95453.63;5112390;28;20173;-72
2023/10/02 00:34:02;;;;;;;13.20;6.33;;;;;;;17.43;70.91;95453.28;5111216;28;20493;-72
2023/10/02 00:36:30;;;;;;;9.18;5.20;;;;;;;17.48;70.47;95450.69;5112300;28;20173;-72
2023/10/02 00:39:24;;;;;;;12.27;5.45;;;;;;;17.53;70.09;95445.47;5112373;28;20573;-72
2023/10/02 00:42:15;;;;;;;8.85;5.18;;;;;;;17.50;70.21;95450.47;5111576;28;21093;-72
2023/10/02 00:44:52;;;;;;;13.40;5.35;;;;;;;17.51;70.29;95450.22;5112141;28;20204;-72
2023/10/02 00:47:38;;;;;;;12.00;5.53;;;;;;;17.42;69.93;95450.84;5111629;28;20414;-72
2023/10/02 00:50:11;;;;;;;10.18;5.18;;;;;;;17.40;69.99;95453.75;5120863;27;20400;-72
2023/10/02 00:52:47;;;;;;;8.35;5.18;;;;;;;17.49;69.45;95454.97;5132615;27;20188;-72
2023/10/02 00:55:16;;;;;;;8.60;3.97;;;;;;;17.47;69.39;95456.28;5132354;27;20565;-72
2023/10/02 00:57:43;;;;;;;7.82;5.22;;;;;;;17.46;69.20;95449.34;5132307;27;20236;-72
2023/10/02 01:00:21;;;;;;;8.82;4.80;;;;;;;17.35;69.45;95451.00;5132362;27;20363;-72
2023/10/02 01:02:48;;;;;;;9.00;4.85;;;;;;;17.42;69.00;95457.00;5132544;27;20707;-73
2023/10/02 01:05:21;;;;;;;8.98;5.90;;;;;;;17.30;69.01;95446.38;5131032;27;20428;-71
2023/10/02 01:07:53;;;;;;;13.18;6.32;;;;;;;17.26;69.74;95455.09;5131138;27;20389;-72
2023/10/02 01:10:19;;;;;;;10.45;5.53;;;;;;;17.16;69.57;95452.22;5131096;27;20776;-71
2023/10/02 01:12:50;;;;;;;11.32;6.00;;;;;;;17.08;69.48;95448.09;5130979;27;20419;-71
2023/10/02 01:15:22;;;;;;;11.35;5.47;;;;;;;17.16;69.50;95453.03;5131031;27;20450;-71
2023/10/02 01:17:49;;;;;;;9.05;5.50;;;;;;;17.19;68.77;95449.09;5131292;27;20400;-71
2023/10/02 01:20:28;;;;;;;12.45;5.82;;;;;;;17.13;69.10;95450.03;5112947;27;20417;-71
2023/10/02 01:23:05;;;;;;;11.32;5.55;;;;;;;17.20;68.87;95448.06;5130642;27;20412;-72
2023/10/02 01:25:30;;;;;;;9.57;4.88;;;;;;;17.42;68.30;95456.19;5131416;27;20258;-73
2023/10/02 01:27:57;;;;;;;15.50;5.45;;;;;;;17.41;68.18;95450.03;5111467;28;20788;-73
2023/10/02 01:30:24;;;;;;;15.38;5.55;;;;;;;17.45;67.74;95456.53;5111566;28;20206;-73
2023/10/02 01:33:17;;;;;;;9.70;5.35;;;;;;;17.43;67.94;95457.78;5111365;28;20169;-73
2023/10/02 01:35:51;;;;;;;10.07;4.72;;;;;;;17.47;67.86;95454.41;5093239;28;20610;-73
2023/10/02 01:38:29;;;;;;;9.40;5.03;;;;;;;17.32;67.93;95462.94;5092943;28;20259;-73
2023/10/02 01:41:02;;;;;;;10.70;4.95;;;;;;;17.30;68.37;95456.22;5123373;27;20179;-73
2023/10/02 01:43:32;;;;;;;15.85;5.53;;;;;;;17.26;68.46;95458.56;5131887;27;20168;-73
2023/10/02 01:46:00;;;;;;;12.82;5.20;;;;;;;17.21;68.42;95455.78;5094664;28;20192;-72
2023/10/02 01:48:44;;;;;;;7.75;3.92;;;;;;;17.08;68.55;95445.44;5110952;28;20215;-71
2023/10/02 01:51:15;;;;;;;5.35;4.55;;;;;;;17.14;68.90;95464.94;5110964;28;20169;-71
2023/10/02 01:53:45;;;;;;;9.52;4.75;;;;;;;17.08;69.15;95460.59;5110673;28;20183;-71
2023/10/02 01:56:12;;;;;;;5.63;4.10;;;;;;;17.02;69.28;95467.66;5110394;28;20229;-71
2023/10/02 01:58:39;;;;;;;9.00;4.85;;;;;;;16.96;69.45;95472.06;5110844;28;20184;-71
2023/10/02 02:01:11;;;;;;;7.95;4.30;;;;;;;16.87;69.51;95470.00;5110487;28;20419;-71
2023/10/02 02:03:37;;;;;;;6.53;4.45;;;;;;;16.85;69.60;95469.44;5110764;28;20685;-71
2023/10/02 02:06:08;;;;;;;11.85;5.75;;;;;;;16.84;69.45;95463.31;5110553;28;20287;-71
2023/10/02 02:08:47;;;;;;;9.35;5.22;;;;;;;16.79;69.46;95460.53;5110451;28;20268;-71
2023/10/02 02:11:28;;;;;;;8.07;4.85;;;;;;;16.75;69.28;95462.06;5110577;28;20200;-71
2023/10/02 02:13:55;;;;;;;10.23;5.00;;;;;;;16.71;69.29;95468.06;5110428;28;20399;-71
2023/10/02 02:16:30;;;;;;;13.70;4.97;;;;;;;16.66;69.60;95470.63;5110748;28;20659;-71
2023/10/02 02:18:58;;;;;;;11.00;5.10;;;;;;;16.56;69.88;95466.66;5109385;28;20468;-72
2023/10/02 02:21:24;;;;;;;7.13;4.70;;;;;;;16.48;69.75;95461.72;5110152;28;20413;-72
2023/10/02 02:24:03;;;;;;;9.02;4.70;;;;;;;16.43;69.67;95466.13;5109650;28;20750;-73
2023/10/02 02:26:37;;;;;;;6.57;4.75;;;;;;;16.43;69.21;95468.78;5109524;28;20948;-73
2023/10/02 02:29:04;;;;;;;7.73;4.67;;;;;;;16.34;69.09;95478.94;5105542;28;20418;-73
2023/10/02 02:31:30;;;;;;;8.10;4.72;;;;;;;16.28;68.89;95477.19;5109446;28;20778;-73
2023/10/02 02:34:26;;;;;;;7.68;4.63;;;;;;;16.22;68.58;95478.94;5091375;28;20715;-73
2023/10/02 02:36:51;;;;;;;7.72;4.75;;;;;;;16.39;68.17;95479.03;5108834;28;20560;-73
2023/10/02 02:39:22;;;;;;;10.00;4.32;;;;;;;16.55;67.75;95481.00;5110453;28;20175;-73
2023/10/02 02:42:09;;;;;;;7.97;4.75;;;;;;;16.60;67.07;95483.75;5110853;28;20173;-74
2023/10/02 02:44:50;;;;;;;13.23;4.63;;;;;;;16.61;66.80;95484.59;5110391;28;20173;-74
2023/10/02 02:47:23;;;;;;;10.20;4.28;;;;;;;16.57;66.45;95483.44;5110437;28;20627;-73
2023/10/02 02:49:51;;;;;;;8.77;4.85;;;;;;;16.26;66.79;95489.09;5109227;28;20417;-72
2023/10/02 02:52:19;;;;;;;9.82;5.03;;;;;;;16.29;67.27;95483.31;5109732;28;20966;-74
2023/10/02 02:54:47;;;;;;;9.10;4.55;;;;;;;16.38;66.80;95480.09;5110645;28;20195;-74
2023/10/02 02:57:13;;;;;;;8.80;4.65;;;;;;;16.35;66.85;95472.56;5109138;28;20506;-74
2023/10/02 02:59:39;;;;;;;9.90;4.90;;;;;;;16.32;66.53;95465.06;5110360;28;21148;-74
2023/10/02 03:02:20;;;;;;;7.03;4.53;;;;;;;16.31;67.10;95476.72;5108826;28;20419;-73
2023/10/02 03:04:47;;;;;;;11.93;5.20;;;;;;;16.32;66.91;95480.19;5110066;28;20181;-73
2023/10/02 03:07:29;;;;;;;11.88;4.97;;;;;;;16.15;67.17;95462.28;5110108;28;20288;-73
2023/10/02 03:09:56;;;;;;;8.48;4.50;;;;;;;16.18;67.64;95471.63;5113789;28;20691;-73
2023/10/02 03:12:23;;;;;;;12.73;6.43;;;;;;;16.11;68.09;95477.06;5124657;27;20404;-73
2023/10/02 03:14:51;;;;;;;9.32;5.60;;;;;;;15.96;68.18;95475.88;5132027;27;20840;-73
2023/10/02 03:17:28;;;;;;;8.82;5.03;;;;;;;15.82;68.08;95452.22;5116041;27;20621;-73
2023/10/02 03:20:06;;;;;;;8.52;5.18;;;;;;;15.88;67.47;95465.59;5133105;27;20525;-72
2023/10/02 03:22:33;;;;;;;9.90;5.35;;;;;;;15.83;67.59;95476.88;5133063;27;20488;-72
2023/10/02 03:25:24;;;;;;;10.50;5.20;;;;;;;15.89;67.66;95477.84;5133995;27;20227;-72
2023/10/02 03:27:48;;;;;;;9.93;4.97;;;;;;;15.90;67.37;95474.16;5115757;27;20479;-72
2023/10/02 03:30:35;;;;;;;13.95;5.10;;;;;;;15.81;66.75;95471.03;5113428;28;20180;-72
2023/10/02 03:33:03;;;;;;;11.45;4.43;;;;;;;15.57;66.29;95470.13;5112855;28;20421;-72
2023/10/02 03:35:39;;;;;;;14.00;4.45;;;;;;;15.57;65.83;95454.22;5113341;28;20614;-73
2023/10/02 03:38:04;;;;;;;13.43;4.97;;;;;;;15.70;65.96;95472.59;5113600;28;20180;-73
2023/10/02 03:40:31;;;;;;;8.23;4.73;;;;;;;15.63;65.73;95473.75;5112332;28;20411;-72
2023/10/02 03:43:18;;;;;;;9.45;5.20;;;;;;;15.52;65.33;95458.56;5112468;28;20414;-72
2023/10/02 03:45:44;;;;;;;16.10;4.82;;;;;;;15.71;64.94;95470.75;5113230;28;20205;-73
2023/10/02 03:48:10;;;;;;;11.63;4.57;;;;;;;15.69;64.58;95473.63;5113348;28;20700;-73
2023/10/02 03:50:37;;;;;;;11.48;5.57;;;;;;;15.58;65.31;95469.09;5112141;28;20489;-73
2023/10/02 03:53:12;;;;;;;9.48;4.85;;;;;;;15.68;64.98;95465.91;5117839;27;20192;-73
2023/10/02 03:55:39;;;;;;;13.98;5.60;;;;;;;15.68;63.98;95474.69;5112967;28;20420;-74
2023/10/02 03:58:05;;;;;;;12.45;5.65;;;;;;;15.67;64.12;95477.56;5112010;28;20407;-73
2023/10/02 04:00:43;;;;;;;10.73;5.03;;;;;;;15.61;64.05;95473.97;5112470;28;20414;-72
2023/10/02 04:03:09;;;;;;;9.07;4.03;;;;;;;15.54;63.77;95470.59;5113138;28;20204;-72
2023/10/02 04:05:43;;;;;;;14.15;4.30;;;;;;;15.61;63.84;95486.44;5112678;28;20189;-71
2023/10/02 04:08:14;;;;;;;8.77;4.85;;;;;;;15.67;64.11;95485.50;5112731;28;20184;-71
2023/10/02 04:10:56;;;;;;;14.73;5.75;;;;;;;15.68;63.85;95490.59;5112067;27;20425;-72
2023/10/02 04:13:29;;;;;;;22.75;6.03;;;;;;;15.65;64.39;95490.25;5092973;28;20465;-71
2023/10/02 04:16:28;;;;;;;10.77;5.05;;;;;;;15.58;64.14;95479.72;5133213;27;20203;-71
2023/10/02 04:18:49;;;;;;;11.98;5.00;;;;;;;15.69;63.68;95497.53;5132497;27;20553;-70
2023/10/02 04:21:19;;;;;;;10.63;4.55;;;;;;;15.60;63.53;95500.72;5132471;27;20499;-71
2023/10/02 04:23:45;;;;;;;13.37;4.83;;;;;;;15.57;63.49;95499.31;5132448;27;20413;-72
2023/10/02 04:26:20;;;;;;;12.60;4.20;;;;;;;15.57;63.62;95488.72;5132843;27;20216;-72
2023/10/02 04:28:58;;;;;;;14.07;4.00;;;;;;;15.67;63.33;95502.25;5113564;27;20176;-72
2023/10/02 04:31:27;;;;;;;13.00;4.28;;;;;;;15.67;63.47;95502.25;5110394;28;20636;-72
2023/10/02 04:34:15;;;;;;;17.58;4.75;;;;;;;15.63;63.63;95517.03;5112412;28;20442;-72
2023/10/02 04:36:41;;;;;;;15.77;4.28;;;;;;;15.61;63.02;95518.28;5111459;28;20429;-72
2023/10/02 04:44:45;;;;;;;12.93;4.35;;;;;;;15.55;64.05;95520.00;5111322;28;20475;-72
2023/10/02 04:47:18;;;;;;;10.48;3.67;;;;;;;15.58;64.08;95516.88;5112226;28;20207;-72
2023/10/02 04:55:15;;;;;;;17.67;4.00;;;;;;;15.58;63.17;95516.88;5112133;28;20286;-72
2023/10/02 04:57:42;;;;;;;13.50;3.97;;;;;;;15.65;62.90;95528.22;5111877;28;20559;-72
2023/10/02 05:00:24;;;;;;;19.00;4.53;;;;;;;15.67;63.29;95531.44;5111976;28;20180;-71
2023/10/02 05:03:09;;;;;;;10.68;4.38;;;;;;;15.74;63.36;95531.38;5112065;28;20183;-72
2023/10/02 05:05:37;;;;;;;11.57;4.35;;;;;;;15.95;62.53;95533.50;5111894;28;20563;-71
2023/10/02 05:08:03;;;;;;;19.30;3.90;;;;;;;16.10;61.47;95538.38;5111844;28;20180;-71
2023/10/02 05:10:29;;;;;;;14.48;4.40;;;;;;;16.16;61.19;95532.19;5111698;28;20544;-73
2023/10/02 05:12:54;;;;;;;14.13;4.63;;;;;;;16.01;60.70;95532.59;5111168;28;20842;-71
2023/10/02 05:15:20;;;;;;;25.75;5.18;;;;;;;16.10;61.24;95533.06;5111093;28;20173;-72
2023/10/02 05:17:47;;;;;;;9.32;3.75;;;;;;;16.05;60.27;95531.09;5092452;28;20418;-71
2023/10/02 05:20:15;;;;;;;7.22;3.60;;;;;;;15.82;60.91;95531.06;5110405;28;20636;-72
2023/10/02 05:22:42;;;;;;;21.90;3.17;;;;;;;15.89;60.91;95534.41;5110660;28;20200;-70
2023/10/02 05:25:08;;;;;;;15.02;4.15;;;;;;;15.96;60.55;95535.13;5110408;28;20227;-71
2023/10/02 05:27:39;;;;;;;6.43;3.42;;;;;;;16.06;60.26;95538.03;5110572;28;20189;-71
2023/10/02 05:30:17;;;;;;;4.95;3.03;;;;;;;16.16;60.59;95545.47;5109948;28;20725;-70
2023/10/02 05:32:43;;;;;;;6.28;3.13;;;;;;;16.48;60.61;95551.28;5091931;28;20180;-70
2023/10/02 05:37:40;;;;;;;7.75;3.45;;;;;;;17.04;58.00;95544.59;5111213;28;20180;-70
2023/10/02 05:45:40;;;;;;;7.53;3.15;;;;;;;17.80;55.07;95540.78;5111081;28;20197;-70
2023/10/02 05:48:14;;;;;;;6.82;3.20;;;;;;;17.75;54.32;95556.66;5111010;28;20180;-70
2023/10/02 05:50:47;;;;;;;9.52;3.13;;;;;;;17.83;55.16;95554.44;5110915;28;20568;-70
2023/10/02 05:53:15;;;;;;;7.40;2.78;;;;;;;17.91;54.73;95563.88;5111274;28;20209;-70
2023/10/02 05:55:57;;;;;;;8.15;3.50;;;;;;;18.22;54.80;95559.91;5111526;28;20177;-71
2023/10/02 05:58:32;;;;;;;7.53;2.70;;;;;;;18.45;53.67;95565.91;5092895;28;20173;-70
2023/10/02 06:01:05;;;;;;;13.23;3.88;;;;;;;18.76;53.38;95566.44;5111096;28;20265;-70
2023/10/02 06:03:35;;;;;;;8.35;3.00;;;;;;;19.08;52.32;95566.63;5092705;28;20199;-70
2023/10/02 06:06:21;;;;;;;13.00;3.70;;;;;;;19.34;50.54;95559.75;5109816;28;20631;-70
2023/10/02 06:08:48;;;;;;;8.40;3.00;;;;;;;19.54;50.61;95566.19;5110659;28;20659;-70
2023/10/02 06:11:27;;;;;;;5.50;3.35;;;;;;;19.73;50.04;95565.84;5110740;28;20173;-70
2023/10/02 06:13:56;;;;;;;9.55;2.97;;;;;;;19.89;49.30;95570.31;5110705;28;20192;-70
2023/10/02 06:16:29;;;;;;;5.70;2.83;;;;;;;20.00;48.80;95574.69;5110912;28;20211;-70
2023/10/02 06:19:01;;;;;;;8.02;2.78;;;;;;;20.17;48.68;95566.56;5110680;28;20570;-70
2023/10/02 06:22:21;;;;;;;4.95;2.88;;;;;;;20.37;48.71;95569.47;5110500;28;20256;-70
2023/10/02 06:24:27;;;;;;;13.98;3.20;;;;;;;20.55;47.84;95573.63;5099237;28;20200;-71
2023/10/02 06:27:04;;;;;;;6.95;3.15;;;;;;;20.68;47.78;95574.00;5110498;28;20209;-71
2023/10/02 06:29:35;;;;;;;4.82;2.63;;;;;;;20.86;47.53;95578.13;5092172;28;20569;-70
2023/10/02 06:32:11;;;;;;;6.60;2.80;;;;;;;21.07;46.97;95587.94;5110695;28;20321;-70
2023/10/02 06:34:38;;;;;;;11.90;3.80;;;;;;;20.74;46.24;95579.41;5110626;28;20176;-71
2023/10/02 06:37:12;;;;;;;5.13;3.70;;;;;;;20.90;47.13;95589.16;5110350;28;20260;-70
2023/10/02 06:39:42;;;;;;;11.35;3.70;;;;;;;21.24;46.29;95593.16;5110375;28;20179;-71
2023/10/02 06:42:09;;;;;;;10.05;3.55;;;;;;;21.51;45.04;95589.53;5112196;28;20660;-71
2023/10/02 06:44:52;;;;;;;7.25;3.08;;;;;;;21.80;44.57;95596.09;5116285;27;20232;-70
2023/10/02 06:47:21;;;;;;;7.53;3.30;;;;;;;22.10;44.06;95592.72;5135200;27;20581;-70
2023/10/02 06:49:47;;;;;;;6.72;3.03;;;;;;;22.27;43.71;95604.03;5135079;27;20176;-70
2023/10/02 06:52:16;;;;;;;9.45;3.42;;;;;;;22.44;43.12;95598.44;5135005;27;20259;-70
2023/10/02 06:54:48;;;;;;;7.25;3.88;;;;;;;22.58;43.32;95603.00;5134813;27;20179;-70
2023/10/02 06:57:20;;;;;;;4.50;2.58;;;;;;;22.89;42.81;95606.53;5134975;27;20172;-71
2023/10/02 06:59:53;;;;;;;5.45;3.33;;;;;;;23.01;42.05;95610.81;5134821;27;20249;-71
2023/10/02 07:02:20;;;;;;;6.20;2.80;;;;;;;23.12;42.04;95610.53;5134853;27;20177;-71
2023/10/02 07:04:48;;;;;;;6.40;3.50;;;;;;;22.70;42.05;95607.28;5134728;27;20176;-71
2023/10/02 07:07:15;;;;;;;11.25;3.97;;;;;;;22.89;42.50;95611.91;5134741;27;20208;-70
2023/10/02 07:09:41;;;;;;;7.15;3.25;;;;;;;23.16;41.71;95613.50;5134632;27;20172;-70
2023/10/02 07:12:13;;;;;;;12.00;3.70;;;;;;;23.20;41.17;95620.72;5134519;27;20199;-71
2023/10/02 07:14:40;;;;;;;7.00;3.10;;;;;;;23.47;41.49;95623.09;5134473;27;20183;-71
2023/10/02 07:17:16;;;;;;;10.27;4.07;;;;;;;23.60;40.92;95617.19;5134456;27;20676;-70
2023/10/02 07:19:48;;;;;;;8.90;3.20;;;;;;;23.73;40.91;95604.22;5135156;27;20183;-71
2023/10/02 07:22:17;;;;;;;7.78;2.80;;;;;;;23.92;40.12;95618.69;5134852;27;20528;-71
2023/10/02 07:24:45;;;;;;;16.83;3.95;;;;;;;23.82;40.55;95611.44;5134625;27;20212;-70
2023/10/02 07:27:22;;;;;;;7.85;3.05;;;;;;;23.98;39.88;95612.19;5134377;27;20196;-70
2023/10/02 07:29:51;;;;;;;3.70;2.42;;;;;;;24.07;39.73;95600.56;5134733;27;20190;-70
2023/10/02 07:32:22;;;;;;;8.50;3.08;;;;;;;23.71;40.26;95612.56;5134856;27;20229;-71
2023/10/02 07:34:51;;;;;;;7.72;3.55;;;;;;;23.70;41.46;95598.31;5134597;27;20176;-71
2023/10/02 07:37:21;;;;;;;5.07;2.88;;;;;;;23.95;41.16;95612.75;5134319;27;20168;-70
2023/10/02 07:39:49;;;;;;;7.72;2.92;;;;;;;23.97;40.11;95608.69;5133903;27;20278;-70
2023/10/02 07:42:16;;;;;;;5.60;2.67;;;;;;;24.43;40.52;95614.66;5134193;27;20646;-72
2023/10/02 07:44:42;;;;;;;6.10;2.45;;;;;;;24.90;39.29;95610.56;5134294;27;20240;-71
2023/10/02 07:47:27;;;;;;;4.55;2.75;;;;;;;25.29;37.83;95615.06;5114193;27;20205;-73
2023/10/02 07:49:58;;;;;;;5.20;2.40;;;;;;;25.50;37.10;95619.19;5113493;28;20690;-72
2023/10/02 07:52:36;;;;;;;11.98;3.15;;;;;;;25.30;37.85;95600.50;5113181;28;21629;-71
2023/10/02 07:55:02;;;;;;;4.75;2.92;;;;;;;25.62;37.24;95625.00;5111420;28;20203;-71
2023/10/02 07:57:32;;;;;;;9.55;3.20;;;;;;;25.51;36.62;95616.19;5113248;28;20247;-71
2023/10/02 08:00:00;;;;;;;6.63;2.55;;;;;;;25.50;36.84;95620.00;5095244;28;20645;-71
2023/10/02 08:02:30;;;;;;;10.80;3.28;;;;;;;25.45;37.52;95619.22;5113235;28;20172;-72
2023/10/02 08:04:59;;;;;;;5.32;3.40;;;;;;;25.58;37.04;95618.56;5094771;28;20521;-70
2023/10/02 08:07:25;;;;;;;8.50;2.95;;;;;;;25.41;36.53;95612.81;5112846;28;20181;-72
2023/10/02 08:09:52;;;;;;;5.63;2.95;;;;;;;25.51;37.66;95621.56;5112832;28;20172;-73
2023/10/02 08:12:30;;;;;;;6.53;3.03;;;;;;;25.55;37.13;95619.13;5113030;28;20639;-72
2023/10/02 08:15:26;;;;;;;8.77;2.80;;;;;;;25.26;37.02;95621.84;5112733;28;20240;-72
2023/10/02 08:20:24;;;;;;;11.40;3.22;;;;;;;25.15;37.64;95615.75;5110403;28;20234;-72
2023/10/02 08:22:52;;;;;;;7.90;3.58;;;;;;;25.11;37.50;95617.41;5112627;28;20173;-71
2023/10/02 08:25:23;;;;;;;5.22;3.10;;;;;;;25.32;37.33;95609.94;5112095;28;20208;-72
2023/10/02 08:27:55;;;;;;;9.50;3.42;;;;;;;25.36;37.51;95618.25;5112579;28;20189;-74
2023/10/02 08:30:28;;;;;;;7.95;3.75;;;;;;;25.37;37.19;95617.94;5112755;28;20173;-72
2023/10/02 08:33:18;;;;;;;9.82;3.97;;;;;;;25.63;37.50;95615.81;5112762;28;20184;-73
2023/10/02 08:35:46;;;;;;;12.15;3.40;;;;;;;24.94;37.01;95606.22;5112808;28;20175;-73
2023/10/02 08:38:21;;;;;;;8.55;3.25;;;;;;;24.31;38.79;95610.69;5112576;28;20165;-73
2023/10/02 08:40:58;;;;;;;10.10;3.72;;;;;;;24.54;39.31;95617.28;5112850;28;20259;-73
2023/10/02 08:43:27;;;;;;;10.48;4.88;;;;;;;24.80;39.39;95614.13;5094174;28;20234;-73
2023/10/02 08:45:54;;;;;;;9.35;3.47;;;;;;;24.92;37.74;95603.00;5112292;28;20215;-72
2023/10/02 08:48:25;;;;;;;7.68;3.63;;;;;;;24.54;38.40;95607.31;5112395;28;20276;-72
2023/10/02 08:50:58;;;;;;;8.70;3.00;;;;;;;24.13;39.37;95605.94;5112574;28;20171;-71
2023/10/02 08:53:25;;;;;;;7.78;3.40;;;;;;;24.27;39.85;95617.72;5112401;28;20216;-72
2023/10/02 08:56:00;;;;;;;6.20;2.90;;;;;;;24.47;39.13;95606.03;5112206;28;20181;-71
2023/10/02 08:58:27;;;;;;;14.27;4.10;;;;;;;24.79;38.86;95598.25;5112254;28;20254;-72
2023/10/02 09:03:41;;;;;;;6.85;3.40;;;;;;;24.86;37.87;95592.53;5112202;28;20187;-71
2023/10/02 09:06:28;;;;;;;9.32;4.20;;;;;;;24.55;38.58;95591.97;5111099;28;20185;-71
2023/10/02 09:09:16;;;;;;;18.20;4.78;;;;;;;24.75;39.57;95595.31;5112192;28;20176;-71
2023/10/02 09:11:45;;;;;;;8.18;3.30;;;;;;;25.07;36.95;95580.53;5112403;28;20180;-73
2023/10/02 09:16:46;;;;;;;7.68;3.40;;;;;;;25.21;35.90;95594.13;5111998;28;20329;-72
2023/10/02 09:19:28;;;;;;;6.70;3.67;;;;;;;25.15;35.96;95590.69;5111912;28;20184;-71
2023/10/02 09:22:07;;;;;;;6.05;3.63;;;;;;;25.03;36.30;95590.25;5111950;28;20181;-71
2023/10/02 09:24:38;;;;;;;7.95;3.15;;;;;;;25.03;35.92;95590.25;5111760;28;20220;-71
2023/10/02 09:27:23;;;;;;;8.95;3.65;;;;;;;25.12;35.58;95588.56;5111389;28;20256;-71
2023/10/02 09:32:47;;;;;;;8.32;3.22;;;;;;;24.95;35.92;95567.41;5111641;28;20207;-71
2023/10/02 09:35:29;;;;;;;7.55;2.83;;;;;;;25.14;35.33;95586.38;5111338;28;20208;-71
2023/10/02 09:38:04;;;;;;;12.10;3.40;;;;;;;25.03;35.21;95585.66;5111400;28;20241;-71
2023/10/02 09:40:54;;;;;;;9.05;3.75;;;;;;;24.97;36.11;95584.13;5111388;28;20180;-71
2023/10/02 09:43:33;;;;;;;8.88;3.15;;;;;;;24.93;34.74;95583.06;5111518;28;20628;-71
2023/10/02 09:46:05;;;;;;;6.28;3.55;;;;;;;24.93;34.25;95583.06;5111520;28;20196;-70
2023/10/02 09:51:30;;;;;;;6.95;3.42;;;;;;;24.84;34.00;95582.03;5111554;28;20983;-70
2023/10/02 09:54:13;;;;;;;12.35;3.42;;;;;;;24.75;33.98;95581.03;5111289;28;20176;-70
2023/10/02 09:57:12;;;;;;;5.25;3.55;;;;;;;24.63;35.72;95577.91;5094658;28;20250;-71
2023/10/02 09:59:48;;;;;;;8.93;3.53;;;;;;;24.41;36.75;95581.00;5111131;28;20199;-71
2023/10/02 10:08:28;;;;;;;9.50;3.35;;;;;;;23.77;38.30;95581.09;5111102;28;20618;-71
2023/10/02 10:10:47;;;;;;;9.13;3.70;;;;;;;23.61;38.37;95581.13;5106661;28;20191;-71
2023/10/02 10:13:26;;;;;;;11.00;4.53;;;;;;;23.09;37.38;95578.03;5110863;28;20195;-71
2023/10/02 10:16:18;;;;;;;6.93;3.40;;;;;;;23.08;40.02;95584.50;5110742;28;20172;-71
2023/10/02 10:22:00;;;;;;;7.97;3.80;;;;;;;22.75;38.89;95567.03;5110982;28;20222;-70
2023/10/02 10:25:22;;;;;;;10.52;3.72;;;;;;;22.56;39.59;95562.22;5108016;28;20260;-70
2023/10/02 10:27:55;;;;;;;9.27;3.33;;;;;;;22.57;40.70;95552.28;5110647;28;20204;-70
2023/10/02 10:30:39;;;;;;;8.18;3.28;;;;;;;22.59;41.91;95552.78;5110786;28;20189;-70
2023/10/02 10:33:15;;;;;;;11.80;4.00;;;;;;;22.62;41.98;95549.59;5110522;28;20668;-71
2023/10/02 10:35:49;;;;;;;12.75;3.33;;;;;;;22.67;41.44;95541.50;5110792;28;20168;-70
2023/10/02 10:41:31;;;;;;;13.35;3.53;;;;;;;22.50;40.96;95531.06;5111037;28;20180;-70
2023/10/02 10:43:59;;;;;;;7.63;3.67;;;;;;;22.51;41.18;95534.53;5105750;28;20180;-70
2023/10/02 10:46:27;;;;;;;11.18;4.55;;;;;;;22.54;41.11;95528.66;5110512;28;20203;-70
2023/10/02 10:49:07;;;;;;;11.65;4.10;;;;;;;22.58;41.02;95527.03;5110794;28;20655;-70
2023/10/02 10:51:39;;;;;;;6.35;3.35;;;;;;;22.57;40.60;95534.28;5110899;28;20191;-70
2023/10/02 10:54:12;;;;;;;14.73;4.45;;;;;;;22.48;40.85;95525.19;5110461;28;20173;-70
2023/10/02 10:56:43;;;;;;;6.63;3.28;;;;;;;22.53;41.89;95519.78;5110327;28;20161;-70
2023/10/02 10:59:12;;;;;;;10.85;3.70;;;;;;;22.46;41.48;95500.47;5110654;28;20274;-70
2023/10/02 11:04:34;;;;;;;7.90;3.63;;;;;;;22.34;41.57;95513.34;5110576;28;20233;-70
2023/10/02 11:06:59;;;;;;;6.45;3.90;;;;;;;22.33;42.00;95495.63;5110215;28;20193;-70
2023/10/02 11:09:25;;;;;;;8.90;3.65;;;;;;;22.51;42.92;95507.72;5110238;28;20214;-70
2023/10/02 11:11:50;;;;;;;13.52;4.15;;;;;;;22.52;41.04;95498.59;5110195;28;20206;-70
2023/10/02 11:14:36;;;;;;;12.57;4.65;;;;;;;22.63;40.71;95510.13;5109638;28;20180;-70
2023/10/02 11:17:04;;;;;;;15.15;3.75;;;;;;;22.57;41.46;95503.97;5109837;28;20546;-70
2023/10/02 11:22:02;;;;;;;5.47;3.38;;;;;;;22.75;41.65;95506.09;5109864;28;20218;-70
2023/10/02 11:24:29;;;;;;;9.90;3.45;;;;;;;22.79;41.88;95504.50;5109947;28;20607;-71
2023/10/02 11:27:07;;;;;;;8.02;3.72;;;;;;;22.80;41.16;95495.38;5109532;28;20209;-70
2023/10/02 11:29:42;;;;;;;10.35;3.92;;;;;;;22.78;41.12;95483.28;5112299;28;20181;-70
2023/10/02 11:32:19;;;;;;;11.32;4.43;;;;;;;22.81;41.87;95496.97;5113866;28;20187;-70
2023/10/02 11:35:03;;;;;;;8.73;3.72;;;;;;;22.73;42.16;95478.72;5113871;28;20172;-70
2023/10/02 11:37:28;;;;;;;6.72;3.35;;;;;;;22.80;41.82;95484.63;5095664;28;20215;-70
2023/10/02 11:39:56;;;;;;;10.27;3.72;;;;;;;22.77;42.83;95485.16;5113571;28;20205;-71
2023/10/02 11:42:23;;;;;;;11.27;3.80;;;;;;;22.83;42.74;95481.38;5113895;28;20177;-70
2023/10/02 11:44:48;;;;;;;9.55;3.83;;;;;;;22.87;42.33;95470.91;5113734;28;20556;-70
2023/10/02 11:47:14;;;;;;;8.57;3.58;;;;;;;22.92;42.26;95470.88;5113559;28;20227;-70
2023/10/02 11:49:40;;;;;;;8.60;3.67;;;;;;;23.10;41.88;95482.91;5113522;28;20651;-70
2023/10/02 11:52:06;;;;;;;7.65;3.53;;;;;;;23.10;42.16;95488.28;5113571;28;20179;-70
2023/10/02 11:54:36;;;;;;;5.93;3.90;;;;;;;23.15;41.63;95486.41;5113584;28;20177;-70
2023/10/02 11:57:08;;;;;;;8.45;3.78;;;;;;;23.15;41.00;95493.66;5113575;28;20177;-70
2023/10/02 11:59:35;;;;;;;13.02;4.00;;;;;;;23.17;41.94;95486.94;5113214;28;20622;-70
2023/10/02 12:02:01;;;;;;;13.63;4.20;;;;;;;23.16;41.21;95489.91;5113327;28;20218;-70
2023/10/02 12:04:27;;;;;;;7.72;3.95;;;;;;;23.19;41.55;95492.03;5113274;28;20255;-70
2023/10/02 12:06:54;;;;;;;9.27;4.30;;;;;;;23.25;41.39;95493.63;5113438;28;20618;-70
2023/10/02 12:09:24;;;;;;;8.50;3.70;;;;;;;23.27;41.05;95484.19;5113003;27;20204;-70
2023/10/02 12:11:50;;;;;;;7.65;3.45;;;;;;;23.30;40.93;95480.97;5113045;28;20566;-70
2023/10/02 12:14:16;;;;;;;9.38;3.80;;;;;;;23.32;40.81;95480.69;5112986;28;20180;-70
2023/10/02 12:16:41;;;;;;;7.35;3.22;;;;;;;23.37;40.61;95474.50;5112998;28;20177;-70
2023/10/02 12:19:10;;;;;;;5.47;3.58;;;;;;;23.28;40.50;95471.56;5113116;28;20177;-70
2023/10/02 12:21:36;;;;;;;11.43;4.00;;;;;;;23.23;40.63;95464.34;5112896;28;20655;-70
2023/10/02 12:24:04;;;;;;;6.07;3.50;;;;;;;23.23;41.09;95463.53;5112761;28;20523;-70
2023/10/02 12:26:30;;;;;;;6.03;3.65;;;;;;;23.31;40.04;95469.16;5112786;28;20220;-70
2023/10/02 12:28:55;;;;;;;5.63;3.00;;;;;;;23.26;40.28;95465.69;5113050;28;20712;-70
2023/10/02 12:31:21;;;;;;;12.00;4.50;;;;;;;23.22;40.94;95468.09;5112845;28;20219;-70
2023/10/02 12:33:50;;;;;;;6.70;3.80;;;;;;;23.17;41.12;95473.50;5112774;28;20177;-70
2023/10/02 12:36:18;;;;;;;5.82;3.72;;;;;;;23.04;40.90;95459.84;5112694;28;20233;-70
2023/10/02 12:38:45;;;;;;;8.43;4.10;;;;;;;23.09;41.13;95465.22;5112841;28;20177;-70
2023/10/02 12:41:17;;;;;;;7.50;3.90;;;;;;;23.11;41.21;95468.41;5112387;28;20552;-70
2023/10/02 12:43:47;;;;;;;8.50;3.33;;;;;;;23.08;40.48;95464.41;5112393;28;20241;-70